createdAt,value
2023-03-29T00:03:52.067Z,100650.81
2023-03-29T00:08:55.170Z,100651.77
2023-03-29T00:13:57.957Z,100652.76
2023-03-29T00:19:00.868Z,100653.93
2023-03-29T00:24:03.972Z,100655.48
2023-03-29T00:29:06.875Z,100654.90
2023-03-29T00:34:09.982Z,100657.55
2023-03-29T00:39:12.888Z,100661.67
2023-03-29T00:44:34.780Z,100655.89
2023-03-29T00:49:37.844Z,100654.16
2023-03-29T00:54:43.729Z,100656.50
2023-03-29T00:59:48.484Z,100654.73
2023-03-29T01:05:16.053Z,100652.77
2023-03-29T01:10:25.410Z,100648.90
2023-03-29T01:15:29.525Z,100653.11
2023-03-29T01:20:51.177Z,100652.80
2023-03-29T01:26:01.302Z,100645.30
2023-03-29T01:31:09.876Z,100640.59
2023-03-29T01:36:17.522Z,100640.52
2023-03-29T01:41:20.738Z,100640.80
2023-03-29T01:46:43.994Z,100637.72
2023-03-29T01:51:53.555Z,100639.92
2023-03-29T01:56:58.622Z,100637.70
2023-03-29T02:02:05.628Z,100634.69
2023-03-29T02:07:10.839Z,100642.59
2023-03-29T02:12:17.147Z,100645.89
2023-03-29T02:17:20.003Z,100646.24
2023-03-29T02:22:28.646Z,100651.68
2023-03-29T02:27:31.905Z,100644.00
2023-03-29T02:32:50.378Z,100643.48
2023-03-29T02:37:56.221Z,100645.28
2023-03-29T02:43:02.117Z,100648.04
2023-03-29T02:48:08.247Z,100648.25
2023-03-29T02:53:23.185Z,100644.27
2023-03-29T02:58:26.817Z,100638.73
2023-03-29T03:03:29.952Z,100644.45
2023-03-29T03:08:33.225Z,100646.47
2023-03-29T03:13:36.530Z,100645.26
2023-03-29T03:18:39.337Z,100633.30
2023-03-29T03:23:42.242Z,100637.33
2023-03-29T03:28:45.961Z,100638.20
2023-03-29T03:33:49.175Z,100644.27
2023-03-29T03:38:53.385Z,100642.47
2023-03-29T03:43:56.616Z,100650.02
2023-03-29T03:48:59.719Z,100649.77
2023-03-29T03:54:02.628Z,100648.65
2023-03-29T03:59:05.680Z,100651.66
2023-03-29T04:04:09.457Z,100645.75
2023-03-29T04:09:13.190Z,100645.08
2023-03-29T04:14:16.899Z,100649.35
2023-03-29T04:19:20.182Z,100644.66
2023-03-29T04:24:24.447Z,100648.91
2023-03-29T04:29:29.196Z,100651.80
2023-03-29T04:34:32.106Z,100650.27
2023-03-29T04:39:35.117Z,100651.42
2023-03-29T04:44:38.063Z,100651.81
2023-03-29T04:49:41.438Z,100654.63
2023-03-29T04:54:44.226Z,100657.55
2023-03-29T04:59:47.144Z,100656.96
2023-03-29T05:04:50.680Z,100661.16
2023-03-29T05:09:53.969Z,100663.34
2023-03-29T05:14:57.697Z,100666.79
2023-03-29T05:20:01.500Z,100658.64
2023-03-29T05:25:05.481Z,100654.23
2023-03-29T05:30:09.180Z,100652.08
2023-03-29T05:35:12.546Z,100658.32
2023-03-29T05:40:15.876Z,100660.95
2023-03-29T05:45:19.260Z,100651.21
2023-03-29T05:50:22.310Z,100656.28
2023-03-29T05:55:25.184Z,100657.55
2023-03-29T06:00:30.341Z,100656.48
2023-03-29T06:05:35.353Z,100662.05
2023-03-29T06:10:39.765Z,100662.77
2023-03-29T06:15:42.637Z,100667.64
2023-03-29T06:20:49.442Z,100674.64
2023-03-29T06:25:52.371Z,100675.22
2023-03-29T06:31:04.127Z,100676.42
2023-03-29T06:36:08.334Z,100676.25
2023-03-29T06:41:11.830Z,100682.59
2023-03-29T06:46:16.263Z,100681.60
2023-03-29T06:51:21.209Z,100672.87
2023-03-29T06:56:26.466Z,100683.89
2023-03-29T07:01:29.341Z,100688.52
2023-03-29T07:06:32.200Z,100683.22
2023-03-29T07:11:35.914Z,100681.14
2023-03-29T07:16:39.185Z,100681.92
2023-03-29T07:21:42.877Z,100679.28
2023-03-29T07:27:00.080Z,100676.12
2023-03-29T07:32:06.632Z,100677.86
2023-03-29T07:37:09.518Z,100677.87
2023-03-29T07:42:12.474Z,100671.90
2023-03-29T07:47:15.708Z,100673.09
2023-03-29T07:52:18.934Z,100674.89
2023-03-29T07:57:23.845Z,100674.30
2023-03-29T08:02:27.471Z,100673.55
2023-03-29T08:07:30.497Z,100668.59
2023-03-29T08:12:33.378Z,100671.77
2023-03-29T08:17:36.944Z,100673.22
2023-03-29T08:22:40.584Z,100671.57
2023-03-29T08:27:43.594Z,100673.35
2023-03-29T08:32:49.311Z,100674.59
2023-03-29T08:37:54.817Z,100670.98
2023-03-29T08:43:19.850Z,100668.03
2023-03-29T08:48:29.763Z,100670.11
2023-03-29T08:53:44.407Z,100663.53
2023-03-29T08:58:50.571Z,100662.30
2023-03-29T09:04:00.464Z,100660.23
2023-03-29T09:09:11.289Z,100654.33
2023-03-29T09:14:30.060Z,100658.80
2023-03-29T09:20:05.129Z,100649.24
2023-03-29T09:25:27.542Z,100641.77
2023-03-29T09:30:49.458Z,100642.25
2023-03-29T09:36:04.613Z,100643.60
2023-03-29T09:41:23.541Z,100644.79
2023-03-29T09:46:32.829Z,100647.73
2023-03-29T09:51:39.259Z,100641.48
2023-03-29T09:56:45.963Z,100639.92
2023-03-29T10:01:49.174Z,100633.80
2023-03-29T10:06:52.805Z,100631.33
2023-03-29T10:11:57.284Z,100625.73
2023-03-29T10:17:00.427Z,100626.86
2023-03-29T10:22:22.067Z,100627.50
2023-03-29T10:27:28.179Z,100626.42
2023-03-29T10:32:36.325Z,100616.16
2023-03-29T10:37:50.534Z,100615.95
2023-03-29T10:42:57.876Z,100612.27
2023-03-29T10:48:01.732Z,100605.09
2023-03-29T10:53:30.078Z,100597.89
2023-03-29T10:59:09.410Z,100591.06
2023-03-29T11:04:46.772Z,100587.22
2023-03-29T11:10:11.324Z,100585.59
2023-03-29T11:15:32.698Z,100576.46
2023-03-29T11:21:02.246Z,100571.17
2023-03-29T11:26:28.441Z,100566.27
2023-03-29T11:31:31.341Z,100563.77
2023-03-29T11:36:50.602Z,100561.05
2023-03-29T11:42:00.035Z,100556.55
2023-03-29T11:47:11.487Z,100552.27
2023-03-29T11:52:36.912Z,100551.70
2023-03-29T11:57:53.886Z,100540.84
2023-03-29T12:03:07.680Z,100535.14
2023-03-29T12:08:24.986Z,100528.05
2023-03-29T12:13:36.847Z,100524.52
2023-03-29T12:18:47.857Z,100518.05
2023-03-29T12:23:52.015Z,100519.86
2023-03-29T12:29:09.768Z,100514.48
2023-03-29T12:34:15.248Z,100507.06
2023-03-29T12:39:20.415Z,100500.79
2023-03-29T12:44:24.380Z,100500.27
2023-03-29T12:49:32.861Z,100494.81
2023-03-29T12:54:35.706Z,100488.38
2023-03-29T12:59:43.865Z,100488.48
2023-03-29T13:04:55.867Z,100482.71
2023-03-29T13:10:05.351Z,100485.48
2023-03-29T13:15:24.838Z,100481.98
2023-03-29T13:21:00.001Z,100474.21
2023-03-29T13:26:22.175Z,100466.23
2023-03-29T13:31:52.534Z,100463.90
2023-03-29T13:36:57.916Z,100461.54
2023-03-29T13:42:19.928Z,100457.35
2023-03-29T13:47:25.730Z,100448.02
2023-03-29T13:52:37.121Z,100443.39
2023-03-29T13:57:56.875Z,100446.13
2023-03-29T14:03:02.275Z,100441.46
2023-03-29T14:08:08.888Z,100435.98
2023-03-29T14:13:18.288Z,100436.23
2023-03-29T14:18:24.084Z,100432.58
2023-03-29T14:23:33.799Z,100434.77
2023-03-29T14:28:37.717Z,100430.25
2023-03-29T14:33:40.682Z,100425.39
2023-03-29T14:38:49.057Z,100424.48
2023-03-29T14:43:52.040Z,100421.02
2023-03-29T14:48:56.563Z,100410.11
2023-03-29T14:54:03.309Z,100404.55
2023-03-29T14:59:27.547Z,100400.99
2023-03-29T15:04:37.634Z,100394.43
2023-03-29T15:09:40.869Z,100397.06
2023-03-29T15:14:44.023Z,100392.59
2023-03-29T15:19:47.032Z,100388.46
2023-03-29T15:24:50.245Z,100385.51
2023-03-29T15:30:02.937Z,100377.16
2023-03-29T15:35:09.360Z,100370.70
2023-03-29T15:40:26.511Z,100363.23
2023-03-29T15:45:29.501Z,100353.48
2023-03-29T15:50:32.712Z,100347.61
2023-03-29T15:55:35.824Z,100346.67
2023-03-29T16:00:41.809Z,100344.38
2023-03-29T16:05:45.501Z,100341.24
2023-03-29T16:10:49.469Z,100339.77
2023-03-29T16:15:52.451Z,100333.68
2023-03-29T16:20:55.561Z,100329.20
2023-03-29T16:25:59.497Z,100321.85
2023-03-29T16:31:02.393Z,100320.34
2023-03-29T16:36:05.912Z,100316.92
2023-03-29T16:41:14.984Z,100311.38
2023-03-29T16:46:17.934Z,100305.16
2023-03-29T16:51:21.792Z,100300.02
2023-03-29T16:56:24.706Z,100302.36
2023-03-29T17:01:28.150Z,100303.13
2023-03-29T17:06:32.797Z,100299.90
2023-03-29T17:11:36.399Z,100298.05
2023-03-29T17:16:39.457Z,100297.59
2023-03-29T17:21:42.601Z,100296.26
2023-03-29T17:26:45.968Z,100297.51
2023-03-29T17:31:49.278Z,100295.61
2023-03-29T17:36:53.544Z,100297.31
2023-03-29T17:41:56.761Z,100296.58
2023-03-29T17:47:01.085Z,100295.34
2023-03-29T17:52:04.413Z,100297.37
2023-03-29T17:57:07.621Z,100297.80
2023-03-29T18:02:21.411Z,100294.10
2023-03-29T18:07:24.588Z,100288.45
2023-03-29T18:12:28.858Z,100290.96
2023-03-29T18:17:31.750Z,100294.34
2023-03-29T18:22:34.633Z,100294.58
2023-03-29T18:27:39.134Z,100295.68
2023-03-29T18:32:42.251Z,100296.24
2023-03-29T18:37:45.200Z,100290.36
2023-03-29T18:42:48.094Z,100283.30
2023-03-29T18:47:51.220Z,100285.90
2023-03-29T18:52:54.313Z,100289.23
2023-03-29T18:57:57.217Z,100291.15
2023-03-29T19:03:00.232Z,100289.59
2023-03-29T19:08:05.865Z,100284.40
2023-03-29T19:13:08.917Z,100274.33
2023-03-29T19:18:12.007Z,100271.17
2023-03-29T19:23:14.911Z,100266.99
2023-03-29T19:28:17.815Z,100260.54
2023-03-29T19:33:21.634Z,100258.59
2023-03-29T19:38:24.852Z,100259.11
2023-03-29T19:43:27.755Z,100255.48
2023-03-29T19:48:30.843Z,100250.81
2023-03-29T19:53:38.194Z,100244.77
2023-03-29T19:58:42.309Z,100246.52
2023-03-29T20:03:46.555Z,100245.86
2023-03-29T20:08:49.837Z,100239.69
2023-03-29T20:13:52.741Z,100231.11
2023-03-29T20:18:56.542Z,100231.58
2023-03-29T20:23:59.477Z,100226.17
2023-03-29T20:29:03.420Z,100218.66
2023-03-29T20:34:06.304Z,100214.92
2023-03-29T20:39:09.622Z,100209.95
2023-03-29T20:44:13.782Z,100207.88
2023-03-29T20:49:17.675Z,100206.16
2023-03-29T20:54:20.487Z,100201.66
2023-03-29T20:59:23.491Z,100195.45
2023-03-29T21:04:27.085Z,100180.92
2023-03-29T21:09:31.239Z,100171.41
2023-03-29T21:14:34.244Z,100167.26
2023-03-29T21:19:39.195Z,100157.34
2023-03-29T21:24:42.117Z,100144.26
2023-03-29T21:29:45.313Z,100142.41
2023-03-29T21:34:48.215Z,100136.77
2023-03-29T21:39:51.117Z,100129.25
2023-03-29T21:44:54.120Z,100128.00
2023-03-29T21:49:57.015Z,100129.02
2023-03-29T21:54:59.928Z,100129.50
2023-03-29T22:00:05.177Z,100130.85
2023-03-29T22:05:08.681Z,100137.27
2023-03-29T22:10:12.557Z,100132.45
2023-03-29T22:15:15.436Z,100126.58
2023-03-29T22:20:18.606Z,100115.52
2023-03-29T22:25:23.055Z,100112.23
2023-03-29T22:30:25.898Z,100119.52
2023-03-29T22:35:28.796Z,100116.88
2023-03-29T22:40:33.437Z,100105.17
2023-03-29T22:45:36.560Z,100100.16
2023-03-29T22:50:42.975Z,100096.23
2023-03-29T22:55:46.898Z,100090.80
2023-03-29T23:00:50.097Z,100085.36
2023-03-29T23:05:55.951Z,100081.86
2023-03-29T23:10:59.369Z,100073.54
2023-03-29T23:16:03.773Z,100075.46
2023-03-29T23:21:08.969Z,100074.31
2023-03-29T23:26:12.058Z,100071.19
2023-03-29T23:31:18.375Z,100062.34
2023-03-29T23:36:23.191Z,100062.07
2023-03-29T23:41:30.861Z,100061.19
2023-03-29T23:46:34.107Z,100052.16
2023-03-29T23:51:39.249Z,100045.16
2023-03-29T23:56:42.304Z,100040.09
